Latest Weather Observations for Parawa West

IDS60901

Issued at 5:31 pm CST Sunday 14 July 2024 (issued every 10 minutes, with the page automatically refreshed every 10 minutes)

About weather observations | Map of Adelaide area stations | Latest observations for Adelaide area | Other Formats
Station Details ID: 023875 Name: SECOND VALLEY FOREST AWS Lat: -35.57 Lon: 138.29 Height: 341.0 m
Data from the previous 72 hours. | See also: Recent months at Parawa West
Date/Time
CST
Temp
°C
App
Temp
°C
Dew
Point
°C
Rel
Hum
%
Delta-T
°C
Wind Press
QNH
hPa
Press
MSL
hPa
Rain since
9am
mm
Dir  Spd
km/h
Gust
km/h
Spd
kts
Gust
kts
14/05:00pm 8.4 6.6 7.2 92 0.6 SW 6 7 3 4 1017.5 1017.8 0.4
14/04:30pm 9.0 7.1 7.6 91 0.7 WSW 7 11 4 6 1017.6 1017.9 0.4
14/04:00pm 9.6 8.0 8.0 90 0.8 WSW 6 7 3 4 1017.6 1017.9 0.4
14/03:30pm 9.6 8.3 7.5 87 1.0 SW 4 7 2 4 1017.6 1017.9 0.4
14/03:00pm 10.4 9.1 7.8 84 1.3 SW 4 7 2 4 1017.5 1017.8 0.2
14/02:30pm 9.8 8.6 8.1 89 0.8 WSW 4 6 2 3 1017.5 1017.8 0.2
14/02:00pm 10.2 7.4 6.9 80 1.6 S 11 15 6 8 1017.6 1017.9 0.0
14/01:30pm 10.4 7.2 6.9 79 1.7 S 13 20 7 11 1017.7 1018.0 0.0
14/01:00pm 11.0 7.7 6.2 72 2.3 S 13 19 7 10 1017.8 1018.1 0.0
14/12:30pm 10.6 6.6 6.7 77 1.9 S 17 20 9 11 1018.3 1018.6 0.0
14/12:00pm 10.9 7.4 7.4 79 1.7 S 15 20 8 11 1018.8 1019.1 0.0
14/11:30am 10.6 7.4 6.9 78 1.8 S 13 19 7 10 1019.4 1019.8 0.0
14/11:00am 10.8 7.3 7.3 79 1.7 S 15 20 8 11 1019.7 1020.1 0.0
14/10:30am 10.5 7.4 7.4 81 1.5 SSW 13 19 7 10 1020.0 1020.4 0.0
14/10:00am 10.1 6.9 7.0 81 1.5 SSW 13 19 7 10 1019.9 1020.3 0.0
14/09:30am 9.6 7.3 7.5 87 1.0 SSW 9 17 5 9 1019.7 1020.1 0.0
14/09:00am 9.0 6.3 7.3 89 0.8 SSW 11 17 6 9 1019.6 1020.0 1.8
14/08:30am 8.2 5.4 6.8 91 0.7 SSW 11 17 6 9 1019.4 1019.8 1.8
14/08:00am 7.4 4.8 6.3 93 0.5 SSW 9 13 5 7 1019.1 1019.5 1.8
14/07:30am 6.9 4.9 6.2 95 0.3 SW 6 9 3 5 1019.1 1019.5 1.8
14/07:00am 7.1 5.0 6.5 96 0.3 SW 7 11 4 6 1019.0 1019.4 1.8
14/06:30am 7.4 5.5 6.8 96 0.3 WSW 6 9 3 5 1018.8 1019.1 1.8
14/06:00am 7.0 5.1 6.6 97 0.2 SW 6 9 3 5 1018.7 1019.0 1.8
14/05:30am 6.8 4.8 6.4 97 0.2 SW 6 9 3 5 1018.4 1018.7 1.8
14/05:00am 7.1 5.0 6.7 97 0.2 SW 7 11 4 6 1018.3 1018.6 1.8
14/04:30am 7.3 5.4 6.9 97 0.2 SW 6 7 3 4 1018.4 1018.7 1.6
14/04:00am 7.3 5.4 6.9 97 0.2 WSW 6 9 3 5 1018.5 1018.8 1.6
14/03:30am 7.8 6.5 7.5 98 0.1 SW 4 7 2 4 1018.5 1018.8 1.6
14/03:00am 7.7 7.1 7.3 97 0.2 CALM 0 0 0 0 1018.6 1018.9 1.6
14/02:30am 7.6 7.0 7.2 97 0.2 CALM 0 0 0 0 1018.7 1019.0 1.6
14/02:00am 7.5 6.0 6.9 96 0.3 WSW 4 6 2 3 1018.7 1019.0 1.6
14/01:30am 8.2 7.2 7.3 94 0.4 WSW 2 4 1 2 1018.7 1019.0 1.6
14/01:00am 8.3 6.4 7.5 95 0.4 WSW 7 13 4 7 1018.6 1018.9 1.6
14/12:30am 8.0 6.3 7.4 96 0.3 SW 6 7 3 4 1018.8 1019.1 1.6
14/12:00am 8.1 6.8 7.5 96 0.3 SW 4 7 2 4 1018.9 1019.2 1.6
 
Date/Time
CST
Temp
°C
App
Temp
°C
Dew
Point
°C
Rel
Hum
%
Delta-T
°C
Wind Press
QNH
hPa
Press
MSL
hPa
Rain since
9am
mm
Dir  Spd
km/h
Gust
km/h
Spd
kts
Gust
kts
13/11:30pm 8.1 7.1 7.5 96 0.3 SW 2 4 1 2 1019.1 1019.5 1.6
13/11:00pm 8.2 6.5 7.6 96 0.3 SW 6 7 3 4 1019.2 1019.6 1.6
13/10:30pm 8.3 6.6 7.7 96 0.3 SW 6 7 3 4 1019.1 1019.5 1.6
13/10:00pm 8.7 7.6 8.3 97 0.2 SW 4 6 2 3 1019.3 1019.7 1.6
13/09:30pm 8.8 7.3 8.4 97 0.2 SW 6 9 3 5 1019.3 1019.7 1.6
13/09:00pm 8.9 7.4 8.5 97 0.2 SSW 6 7 3 4 1019.3 1019.7 1.6
13/08:30pm 9.1 7.6 8.3 95 0.4 SW 6 9 3 5 1019.2 1019.6 1.4
13/08:00pm 9.1 7.6 8.3 95 0.4 WSW 6 7 3 4 1018.9 1019.2 1.4
13/07:30pm 9.2 8.1 8.4 95 0.4 WSW 4 6 2 3 1018.8 1019.1 1.4
13/07:00pm 9.2 7.7 8.4 95 0.4 WSW 6 7 3 4 1018.7 1019.0 1.4
13/06:30pm 9.4 8.0 8.8 96 0.3 WSW 6 9 3 5 1018.6 1018.9 1.4
13/06:00pm 9.6 8.2 9.0 96 0.3 WSW 6 9 3 5 1018.5 1018.8 1.0
13/05:30pm 9.7 8.2 9.2 97 0.3 W 7 9 4 5 1018.2 1018.5 1.0
13/05:00pm 10.0 8.6 9.5 97 0.3 WNW 7 11 4 6 1018.1 1018.4 1.0
13/04:30pm 10.1 8.3 9.5 96 0.3 WNW 9 15 5 8 1018.1 1018.4 1.0
13/04:00pm 10.6 8.4 9.5 93 0.6 WNW 11 19 6 10 1018.1 1018.4 0.6
13/03:30pm 10.8 9.0 9.6 92 0.6 WNW 9 15 5 8 1018.1 1018.4 0.6
13/03:00pm 11.4 8.7 8.8 84 1.3 NW 13 20 7 11 1018.1 1018.4 0.2
13/02:30pm 11.2 8.9 8.9 86 1.2 NW 11 19 6 10 1017.9 1018.2 0.2
13/02:00pm 10.5 7.8 9.1 91 0.7 NW 13 20 7 11 1018.1 1018.4 0.2
13/01:30pm 10.6 8.7 9.2 91 0.7 NW 9 15 5 8 1018.2 1018.5 0.2
13/01:00pm 10.8 8.6 9.4 91 0.7 NW 11 19 6 10 1018.6 1018.9 0.2
13/12:30pm 10.5 8.6 9.1 91 0.7 WNW 9 15 5 8 1018.8 1019.1 0.2
13/12:00pm 10.6 8.8 9.5 93 0.6 NW 9 19 5 10 1019.3 1019.7 0.2
13/11:30am 10.7 9.0 9.9 95 0.4 NW 9 15 5 8 1019.6 1020.0 0.2
13/11:00am 11.3 9.7 10.2 93 0.6 NW 9 17 5 9 1019.9 1020.3 0.0
13/10:30am 9.9 8.4 9.1 95 0.4 WNW 7 17 4 9 1020.2 1020.6 0.0
13/10:00am 10.5 8.4 9.7 95 0.4 NW 11 17 6 9 1020.2 1020.6 0.0
13/09:30am 9.8 7.4 8.7 93 0.5 NW 11 17 6 9 1020.0 1020.4 0.0
13/09:00am 9.3 7.2 8.4 94 0.4 NNW 9 13 5 7 1019.7 1020.1 1.6
13/08:30am 8.7 6.9 8.1 96 0.3 NNW 7 9 4 5 1019.5 1019.9 1.6
13/08:00am 8.1 6.2 7.7 97 0.2 NW 7 9 4 5 1019.3 1019.7 1.6
13/07:30am 7.9 6.2 7.6 98 0.1 NW 6 7 3 4 1019.1 1019.5 1.6
13/07:00am 8.2 6.6 7.8 97 0.2 NW 6 7 3 4 1019.0 1019.4 1.4
13/06:30am 8.1 6.4 7.7 97 0.2 NW 6 7 3 4 1018.7 1019.0 1.4
13/06:00am 7.8 5.9 6.7 93 0.5 WNW 6 7 3 4 1018.6 1018.9 1.4
13/05:30am 7.6 5.3 5.7 88 0.9 W 7 9 4 5 1018.2 1018.5 1.4
13/05:00am 8.5 6.4 5.8 83 1.2 WSW 6 9 3 5 1018.0 1018.3 1.4
13/04:30am 8.4 6.2 6.4 87 0.9 WSW 7 9 4 5 1018.0 1018.3 1.4
13/04:00am 8.5 6.1 7.0 90 0.7 WSW 9 15 5 8 1018.0 1018.3 1.4
13/03:30am 8.7 6.4 7.3 91 0.7 W 9 13 5 7 1018.1 1018.4 1.4
13/03:00am 8.8 7.0 8.0 95 0.4 WSW 7 9 4 5 1018.2 1018.5 1.4
13/02:30am 8.8 7.2 8.2 96 0.3 WSW 6 11 3 6 1018.2 1018.5 1.4
13/02:00am 8.9 6.4 8.3 96 0.3 WSW 11 17 6 9 1018.1 1018.4 1.4
13/01:30am 8.9 7.8 8.5 97 0.2 SW 4 6 2 3 1018.0 1018.3 1.4
13/01:00am 9.3 7.7 8.8 97 0.2 WSW 7 13 4 7 1018.1 1018.4 1.4
13/12:30am 9.0 7.0 8.6 97 0.2 W 9 13 5 7 1018.2 1018.5 1.0
13/12:00am 9.0 7.0 8.6 97 0.2 W 9 11 5 6 1018.3 1018.6 1.0
 
Date/Time
CST
Temp
°C
App
Temp
°C
Dew
Point
°C
Rel
Hum
%
Delta-T
°C
Wind Press
QNH
hPa
Press
MSL
hPa
Rain since
9am
mm
Dir  Spd
km/h
Gust
km/h
Spd
kts
Gust
kts
12/11:30pm 9.3 7.7 8.8 97 0.2 WSW 7 11 4 6 1018.5 1018.8 1.0
12/11:00pm 9.5 7.6 9.0 97 0.3 W 9 11 5 6 1018.6 1018.9 1.0
12/10:30pm 9.8 7.5 9.0 95 0.4 W 11 15 6 8 1018.5 1018.8 1.0
12/10:00pm 9.4 7.0 8.6 95 0.4 W 11 13 6 7 1018.4 1018.7 0.8
12/09:30pm 9.3 7.2 8.4 94 0.4 W 9 13 5 7 1018.2 1018.5 0.8
12/09:00pm 9.6 7.6 8.8 95 0.4 W 9 13 5 7 1018.3 1018.6 0.8
12/08:30pm 9.7 7.8 9.2 97 0.3 W 9 11 5 6 1018.1 1018.4 0.8
12/08:00pm 10.0 8.6 9.7 98 0.2 WNW 7 9 4 5 1018.0 1018.3 0.8
12/07:30pm 9.9 8.7 9.6 98 0.2 NW 6 7 3 4 1017.6 1017.9 0.8
12/07:00pm 9.9 8.7 9.6 98 0.2 NW 6 9 3 5 1017.1 1017.5 0.8
12/06:30pm 9.6 8.3 9.1 97 0.3 NW 6 7 3 4 1017.0 1017.4 0.6
12/06:00pm 9.2 7.6 8.7 97 0.2 NW 7 9 4 5 1016.9 1017.3 0.6
12/05:30pm 9.4 7.8 8.9 97 0.2 NW 7 9 4 5 1016.6 1017.0 0.6
12/05:00pm 9.7 8.4 9.2 97 0.3 NW 6 9 3 5 1016.5 1016.8 0.6
12/04:30pm 10.3 8.9 9.7 96 0.3 WNW 7 11 4 6 1016.6 1017.0 0.6
12/04:00pm 10.9 8.4 9.7 92 0.6 W 13 17 7 9 1016.7 1017.1 0.0
12/03:30pm 11.0 7.6 9.3 89 0.9 WNW 17 24 9 13 1016.4 1016.7 0.0
12/03:00pm 11.5 8.4 10.2 92 0.7 WNW 17 28 9 15 1016.3 1016.6 0.0
12/02:30pm 11.3 8.2 10.2 93 0.6 WNW 17 24 9 13 1016.3 1016.6 0.0
12/02:00pm 11.7 8.1 9.9 89 0.9 WNW 19 28 10 15 1016.1 1016.4 0.0
12/01:30pm 11.6 8.5 10.2 91 0.7 WNW 17 24 9 13 1016.0 1016.3 0.0
12/01:00pm 11.2 7.7 10.3 94 0.5 WNW 19 28 10 15 1016.1 1016.4 0.0
12/12:30pm 11.2 8.6 10.6 96 0.3 NW 15 26 8 14 1016.5 1016.8 0.0
12/12:00pm 11.4 8.3 10.3 93 0.6 NW 17 32 9 17 1016.8 1017.2 0.0
12/11:30am 11.1 8.4 10.3 95 0.4 WNW 15 22 8 12 1017.3 1017.6 0.0
12/11:00am 10.6 8.6 10.1 97 0.3 NW 11 17 6 9 1017.6 1017.9 0.0
12/10:30am 10.4 7.9 9.6 95 0.4 NW 13 20 7 11 1017.5 1017.8 0.0
12/10:00am 10.2 7.6 9.3 94 0.5 WNW 13 22 7 12 1017.1 1017.5 0.0
12/09:30am 10.0 7.4 9.5 97 0.3 WNW 13 20 7 11 1016.9 1017.3 0.0
12/09:00am 9.9 7.4 9.6 98 0.2 WNW 13 20 7 11 1016.7 1017.1 2.2
12/08:30am 9.6 6.7 9.5 99 0.1 NW 15 24 8 13 1016.4 1016.7 2.0
12/08:00am 9.3 7.1 9.2 99 0.1 NW 11 17 6 9 1016.2 1016.5 1.6
12/07:30am 9.0 7.0 8.7 98 0.1 NW 9 17 5 9 1016.0 1016.3 1.6
12/07:00am 8.7 7.0 8.4 98 0.1 NNW 7 11 4 6 1015.8 1016.1 1.6
12/06:30am 8.3 6.5 8.0 98 0.1 NW 7 11 4 6 1015.8 1016.1 1.6
12/06:00am 7.6 5.6 7.2 97 0.2 NW 7 11 4 6 1015.6 1015.9 1.6
12/05:30am 8.3 6.5 8.0 98 0.1 NW 7 13 4 7 1015.4 1015.7 1.6
12/05:00am 8.2 6.4 7.8 97 0.2 NNW 7 11 4 6 1015.3 1015.6 1.4
12/04:30am 8.3 6.5 7.9 97 0.2 NNW 7 9 4 5 1015.3 1015.6 1.4
12/04:00am 8.3 6.5 7.9 97 0.2 NW 7 9 4 5 1015.2 1015.5 1.4
12/03:30am 7.9 6.0 7.5 97 0.2 NW 7 9 4 5 1015.4 1015.7 1.2
12/03:00am 7.8 5.9 7.5 98 0.1 NW 7 9 4 5 1015.3 1015.6 1.2
12/02:30am 7.7 5.9 7.3 97 0.2 NW 6 7 3 4 1015.4 1015.7 1.2
12/02:00am 7.7 5.7 7.1 96 0.3 NW 7 9 4 5 1015.4 1015.7 1.2
12/01:30am 7.9 5.8 6.8 93 0.5 W 7 9 4 5 1015.4 1015.7 1.2
12/01:00am 8.4 5.6 6.9 90 0.7 W 11 17 6 9 1015.3 1015.6 1.2
12/12:30am 8.3 5.6 7.2 93 0.5 W 11 15 6 8 1015.5 1015.8 1.2
12/12:00am 8.4 6.0 7.2 92 0.6 W 9 11 5 6 1015.5 1015.8 1.2
 
Date/Time
CST
Temp
°C
App
Temp
°C
Dew
Point
°C
Rel
Hum
%
Delta-T
°C
Wind Press
QNH
hPa
Press
MSL
hPa
Rain since
9am
mm
Dir  Spd
km/h
Gust
km/h
Spd
kts
Gust
kts
11/11:30pm 8.7 5.9 7.0 89 0.8 W 11 15 6 8 1015.8 1016.1 1.2
11/11:00pm 8.6 6.2 7.1 90 0.7 W 9 11 5 6 1016.0 1016.3 1.2
11/10:30pm 8.9 6.6 7.4 90 0.7 W 9 13 5 7 1015.9 1016.2 1.2
11/10:00pm 8.8 6.0 6.9 88 0.9 W 11 15 6 8 1015.9 1016.2 1.2
11/09:30pm 9.0 6.2 7.0 87 1.0 W 11 13 6 7 1015.9 1016.2 1.2
11/09:00pm 9.4 7.0 6.8 84 1.2 WSW 9 15 5 8 1015.8 1016.1 1.2
11/08:30pm 9.4 6.7 7.2 86 1.1 W 11 15 6 8 1015.8 1016.1 1.2
11/08:00pm 9.3 7.4 7.7 90 0.8 WSW 7 11 4 6 1015.5 1015.8 1.2
11/07:30pm 8.9 7.0 7.4 90 0.7 SW 7 9 4 5 1015.2 1015.5 1.2
11/07:00pm 9.3 7.4 7.7 90 0.8 SW 7 11 4 6 1014.9 1015.2 1.2
11/06:30pm 9.5 7.3 7.8 89 0.8 SW 9 13 5 7 1014.4 1014.7 1.2
11/06:00pm 9.8 7.2 7.6 86 1.1 SSW 11 19 6 10 1013.9 1014.2 1.2

Latest Capital City Observations: Canberra | Sydney | Melbourne | Brisbane | Adelaide | Perth | Hobart | Darwin

Other formats

Comma delimited format used in spreadsheet applications
http://www.bom.gov.au/fwo/IDS60901/IDS60901.94811.axf

JavaScript Object Notation format (JSON) in row-major order
http://www.bom.gov.au/fwo/IDS60901/IDS60901.94811.json

Data quality

Most of these data are generated automatically and are frequently updated. Quality checks on data are not normally performed. It is possible for incorrect values to appear. Refer to information at About Latest Weather Observations and please check the disclaimer before using these data.